sensor_id;sensor_type;location;lat;lon;timestamp;P1;durP1;ratioP1;P2;durP2;ratioP2
36353;SDS011;22383;51.114;13.666;2023-03-04T00:00:08;37.55;;;8.52;;
36353;SDS011;22383;51.114;13.666;2023-03-04T00:02:37;23.20;;;8.68;;
36353;SDS011;22383;51.114;13.666;2023-03-04T00:07:33;33.42;;;7.40;;
36353;SDS011;22383;51.114;13.666;2023-03-04T00:10:00;15.88;;;6.15;;
36353;SDS011;22383;51.114;13.666;2023-03-04T00:12:27;27.92;;;10.38;;
36353;SDS011;22383;51.114;13.666;2023-03-04T00:15:00;25.67;;;8.70;;
36353;SDS011;22383;51.114;13.666;2023-03-04T00:17:27;34.35;;;10.02;;
36353;SDS011;22383;51.114;13.666;2023-03-04T00:19:57;30.05;;;8.82;;
36353;SDS011;22383;51.114;13.666;2023-03-04T00:22:27;36.22;;;8.20;;
36353;SDS011;22383;51.114;13.666;2023-03-04T00:24:57;26.90;;;9.45;;
36353;SDS011;22383;51.114;13.666;2023-03-04T00:27:24;22.35;;;7.90;;
36353;SDS011;22383;51.114;13.666;2023-03-04T00:29:54;19.50;;;8.40;;
36353;SDS011;22383;51.114;13.666;2023-03-04T00:32:22;26.63;;;10.00;;
36353;SDS011;22383;51.114;13.666;2023-03-04T00:34:49;29.00;;;9.68;;
36353;SDS011;22383;51.114;13.666;2023-03-04T00:37:17;27.10;;;9.65;;
36353;SDS011;22383;51.114;13.666;2023-03-04T00:39:44;15.98;;;6.97;;
36353;SDS011;22383;51.114;13.666;2023-03-04T00:42:12;36.80;;;10.10;;
36353;SDS011;22383;51.114;13.666;2023-03-04T00:44:39;33.40;;;10.43;;
36353;SDS011;22383;51.114;13.666;2023-03-04T00:47:06;31.92;;;9.15;;
36353;SDS011;22383;51.114;13.666;2023-03-04T00:49:33;35.70;;;10.90;;
36353;SDS011;22383;51.114;13.666;2023-03-04T00:52:06;27.10;;;9.77;;
36353;SDS011;22383;51.114;13.666;2023-03-04T00:54:37;24.98;;;8.75;;
36353;SDS011;22383;51.114;13.666;2023-03-04T00:57:07;22.80;;;6.57;;
36353;SDS011;22383;51.114;13.666;2023-03-04T00:59:34;25.20;;;7.85;;
36353;SDS011;22383;51.114;13.666;2023-03-04T01:02:01;26.83;;;9.52;;
36353;SDS011;22383;51.114;13.666;2023-03-04T01:04:29;23.25;;;8.38;;
36353;SDS011;22383;51.114;13.666;2023-03-04T01:06:58;21.85;;;7.68;;
36353;SDS011;22383;51.114;13.666;2023-03-04T01:09:27;29.45;;;8.23;;
36353;SDS011;22383;51.114;13.666;2023-03-04T01:16:50;16.10;;;5.88;;
36353;SDS011;22383;51.114;13.666;2023-03-04T01:21:45;21.42;;;7.03;;
36353;SDS011;22383;51.114;13.666;2023-03-04T01:24:14;19.30;;;6.75;;
36353;SDS011;22383;51.114;13.666;2023-03-04T01:26:42;25.63;;;9.18;;
36353;SDS011;22383;51.114;13.666;2023-03-04T01:29:09;22.52;;;7.75;;
36353;SDS011;22383;51.114;13.666;2023-03-04T01:31:36;16.98;;;6.22;;
36353;SDS011;22383;51.114;13.666;2023-03-04T01:34:04;19.60;;;6.07;;
36353;SDS011;22383;51.114;13.666;2023-03-04T01:36:31;25.33;;;7.05;;
36353;SDS011;22383;51.114;13.666;2023-03-04T01:38:59;13.57;;;6.05;;
36353;SDS011;22383;51.114;13.666;2023-03-04T01:41:26;26.45;;;9.00;;
36353;SDS011;22383;51.114;13.666;2023-03-04T01:46:23;17.10;;;6.80;;
36353;SDS011;22383;51.114;13.666;2023-03-04T01:48:50;24.02;;;8.35;;
36353;SDS011;22383;51.114;13.666;2023-03-04T01:51:19;18.27;;;6.45;;
36353;SDS011;22383;51.114;13.666;2023-03-04T01:53:48;18.95;;;6.85;;
36353;SDS011;22383;51.114;13.666;2023-03-04T01:56:19;21.27;;;6.85;;
36353;SDS011;22383;51.114;13.666;2023-03-04T02:01:38;24.63;;;8.20;;
36353;SDS011;22383;51.114;13.666;2023-03-04T02:04:09;15.60;;;6.95;;
36353;SDS011;22383;51.114;13.666;2023-03-04T02:06:39;17.17;;;5.95;;
36353;SDS011;22383;51.114;13.666;2023-03-04T02:09:08;20.13;;;7.03;;
36353;SDS011;22383;51.114;13.666;2023-03-04T02:11:37;26.73;;;7.22;;
36353;SDS011;22383;51.114;13.666;2023-03-04T02:14:05;19.63;;;6.40;;
36353;SDS011;22383;51.114;13.666;2023-03-04T02:16:33;17.83;;;7.63;;
36353;SDS011;22383;51.114;13.666;2023-03-04T02:19:01;17.80;;;6.07;;
36353;SDS011;22383;51.114;13.666;2023-03-04T02:26:42;24.95;;;8.55;;
36353;SDS011;22383;51.114;13.666;2023-03-04T02:29:13;16.08;;;6.45;;
36353;SDS011;22383;51.114;13.666;2023-03-04T02:31:46;23.90;;;8.82;;
36353;SDS011;22383;51.114;13.666;2023-03-04T02:34:23;18.63;;;8.18;;
36353;SDS011;22383;51.114;13.666;2023-03-04T02:36:54;13.80;;;5.68;;
36353;SDS011;22383;51.114;13.666;2023-03-04T02:39:33;14.73;;;6.38;;
36353;SDS011;22383;51.114;13.666;2023-03-04T02:42:05;19.55;;;8.57;;
36353;SDS011;22383;51.114;13.666;2023-03-04T02:44:36;18.70;;;6.13;;
36353;SDS011;22383;51.114;13.666;2023-03-04T02:47:06;18.42;;;8.30;;
36353;SDS011;22383;51.114;13.666;2023-03-04T02:49:37;20.40;;;7.50;;
36353;SDS011;22383;51.114;13.666;2023-03-04T02:52:07;23.80;;;7.32;;
36353;SDS011;22383;51.114;13.666;2023-03-04T02:54:46;17.50;;;7.38;;
36353;SDS011;22383;51.114;13.666;2023-03-04T02:57:15;29.45;;;7.05;;
36353;SDS011;22383;51.114;13.666;2023-03-04T02:59:47;18.05;;;5.95;;
36353;SDS011;22383;51.114;13.666;2023-03-04T03:02:18;22.65;;;6.65;;
36353;SDS011;22383;51.114;13.666;2023-03-04T03:04:46;17.90;;;7.20;;
36353;SDS011;22383;51.114;13.666;2023-03-04T03:07:17;13.45;;;6.97;;
36353;SDS011;22383;51.114;13.666;2023-03-04T03:12:12;20.00;;;7.63;;
36353;SDS011;22383;51.114;13.666;2023-03-04T03:14:39;12.23;;;6.82;;
36353;SDS011;22383;51.114;13.666;2023-03-04T03:17:09;18.88;;;6.55;;
36353;SDS011;22383;51.114;13.666;2023-03-04T03:19:36;21.77;;;7.50;;
36353;SDS011;22383;51.114;13.666;2023-03-04T03:22:06;17.60;;;7.15;;
36353;SDS011;22383;51.114;13.666;2023-03-04T03:24:34;17.92;;;7.50;;
36353;SDS011;22383;51.114;13.666;2023-03-04T03:27:01;15.48;;;6.22;;
36353;SDS011;22383;51.114;13.666;2023-03-04T03:29:30;25.23;;;8.40;;
36353;SDS011;22383;51.114;13.666;2023-03-04T03:36:53;27.73;;;8.35;;
36353;SDS011;22383;51.114;13.666;2023-03-04T03:39:20;20.45;;;7.65;;
36353;SDS011;22383;51.114;13.666;2023-03-04T03:41:48;26.17;;;8.82;;
36353;SDS011;22383;51.114;13.666;2023-03-04T03:44:16;19.33;;;6.10;;
36353;SDS011;22383;51.114;13.666;2023-03-04T03:46:44;31.83;;;7.43;;
36353;SDS011;22383;51.114;13.666;2023-03-04T03:49:12;20.92;;;8.50;;
36353;SDS011;22383;51.114;13.666;2023-03-04T03:51:40;26.13;;;7.95;;
36353;SDS011;22383;51.114;13.666;2023-03-04T03:54:07;21.17;;;7.45;;
36353;SDS011;22383;51.114;13.666;2023-03-04T03:59:02;22.45;;;7.05;;
36353;SDS011;22383;51.114;13.666;2023-03-04T04:01:30;17.48;;;4.72;;
36353;SDS011;22383;51.114;13.666;2023-03-04T04:03:59;16.95;;;6.75;;
36353;SDS011;22383;51.114;13.666;2023-03-04T04:06:27;19.65;;;6.30;;
36353;SDS011;22383;51.114;13.666;2023-03-04T04:08:54;24.17;;;6.28;;
36353;SDS011;22383;51.114;13.666;2023-03-04T04:11:22;32.60;;;5.68;;
36353;SDS011;22383;51.114;13.666;2023-03-04T04:13:49;22.00;;;6.88;;
36353;SDS011;22383;51.114;13.666;2023-03-04T04:16:17;18.52;;;6.07;;
36353;SDS011;22383;51.114;13.666;2023-03-04T04:18:44;19.40;;;6.65;;
36353;SDS011;22383;51.114;13.666;2023-03-04T04:21:12;19.80;;;6.78;;
36353;SDS011;22383;51.114;13.666;2023-03-04T04:23:40;23.83;;;7.65;;
36353;SDS011;22383;51.114;13.666;2023-03-04T04:26:07;28.75;;;9.35;;
36353;SDS011;22383;51.114;13.666;2023-03-04T04:28:35;29.75;;;8.52;;
36353;SDS011;22383;51.114;13.666;2023-03-04T04:31:05;19.38;;;6.97;;
36353;SDS011;22383;51.114;13.666;2023-03-04T04:33:35;16.92;;;7.25;;
36353;SDS011;22383;51.114;13.666;2023-03-04T04:36:03;17.92;;;6.22;;
36353;SDS011;22383;51.114;13.666;2023-03-04T04:38:31;17.50;;;5.55;;
36353;SDS011;22383;51.114;13.666;2023-03-04T04:40:58;16.92;;;7.65;;
36353;SDS011;22383;51.114;13.666;2023-03-04T04:43:26;14.88;;;6.15;;
36353;SDS011;22383;51.114;13.666;2023-03-04T04:45:53;17.10;;;6.53;;
36353;SDS011;22383;51.114;13.666;2023-03-04T04:48:21;30.20;;;9.40;;
36353;SDS011;22383;51.114;13.666;2023-03-04T04:50:52;33.97;;;9.15;;
36353;SDS011;22383;51.114;13.666;2023-03-04T04:53:21;24.38;;;7.32;;
36353;SDS011;22383;51.114;13.666;2023-03-04T04:55:48;21.75;;;7.68;;
36353;SDS011;22383;51.114;13.666;2023-03-04T04:58:16;12.75;;;5.68;;
36353;SDS011;22383;51.114;13.666;2023-03-04T05:00:43;20.20;;;4.72;;
36353;SDS011;22383;51.114;13.666;2023-03-04T05:03:11;25.20;;;7.93;;
36353;SDS011;22383;51.114;13.666;2023-03-04T05:05:38;22.00;;;7.70;;
36353;SDS011;22383;51.114;13.666;2023-03-04T05:08:06;23.00;;;5.82;;
36353;SDS011;22383;51.114;13.666;2023-03-04T05:10:33;18.05;;;6.53;;
36353;SDS011;22383;51.114;13.666;2023-03-04T05:13:01;11.55;;;4.85;;
36353;SDS011;22383;51.114;13.666;2023-03-04T05:15:28;20.60;;;8.13;;
36353;SDS011;22383;51.114;13.666;2023-03-04T05:17:56;17.70;;;7.85;;
36353;SDS011;22383;51.114;13.666;2023-03-04T05:20:23;29.40;;;8.43;;
36353;SDS011;22383;51.114;13.666;2023-03-04T05:22:51;18.92;;;6.15;;
36353;SDS011;22383;51.114;13.666;2023-03-04T05:25:19;13.02;;;5.72;;
36353;SDS011;22383;51.114;13.666;2023-03-04T05:27:46;29.23;;;8.57;;
36353;SDS011;22383;51.114;13.666;2023-03-04T05:30:18;17.10;;;6.18;;
36353;SDS011;22383;51.114;13.666;2023-03-04T05:32:51;22.08;;;6.93;;
36353;SDS011;22383;51.114;13.666;2023-03-04T05:35:18;25.27;;;8.32;;
36353;SDS011;22383;51.114;13.666;2023-03-04T05:37:46;44.55;;;6.45;;
36353;SDS011;22383;51.114;13.666;2023-03-04T05:40:13;13.50;;;5.97;;
36353;SDS011;22383;51.114;13.666;2023-03-04T05:42:41;26.05;;;7.90;;
36353;SDS011;22383;51.114;13.666;2023-03-04T05:45:08;17.27;;;5.38;;
36353;SDS011;22383;51.114;13.666;2023-03-04T05:47:36;22.88;;;5.72;;
36353;SDS011;22383;51.114;13.666;2023-03-04T05:50:03;12.20;;;5.25;;
36353;SDS011;22383;51.114;13.666;2023-03-04T05:54:59;16.60;;;5.03;;
36353;SDS011;22383;51.114;13.666;2023-03-04T05:57:27;20.67;;;6.82;;
36353;SDS011;22383;51.114;13.666;2023-03-04T05:59:57;15.07;;;6.47;;
36353;SDS011;22383;51.114;13.666;2023-03-04T06:02:25;28.88;;;4.90;;
36353;SDS011;22383;51.114;13.666;2023-03-04T06:04:53;33.70;;;6.80;;
36353;SDS011;22383;51.114;13.666;2023-03-04T06:07:20;19.58;;;6.82;;
36353;SDS011;22383;51.114;13.666;2023-03-04T06:09:48;24.75;;;7.47;;
36353;SDS011;22383;51.114;13.666;2023-03-04T06:12:15;15.65;;;6.53;;
36353;SDS011;22383;51.114;13.666;2023-03-04T06:14:43;14.38;;;6.25;;
36353;SDS011;22383;51.114;13.666;2023-03-04T06:17:10;20.48;;;6.22;;
36353;SDS011;22383;51.114;13.666;2023-03-04T06:19:38;22.23;;;5.85;;
36353;SDS011;22383;51.114;13.666;2023-03-04T06:22:08;21.20;;;7.15;;
36353;SDS011;22383;51.114;13.666;2023-03-04T06:24:36;19.10;;;7.55;;
36353;SDS011;22383;51.114;13.666;2023-03-04T06:27:04;15.27;;;6.13;;
36353;SDS011;22383;51.114;13.666;2023-03-04T06:31:59;20.38;;;6.00;;
36353;SDS011;22383;51.114;13.666;2023-03-04T06:34:26;32.47;;;7.47;;
36353;SDS011;22383;51.114;13.666;2023-03-04T06:36:55;18.08;;;5.72;;
36353;SDS011;22383;51.114;13.666;2023-03-04T06:39:23;17.35;;;5.57;;
36353;SDS011;22383;51.114;13.666;2023-03-04T06:41:50;15.35;;;5.57;;
36353;SDS011;22383;51.114;13.666;2023-03-04T06:44:18;23.38;;;6.57;;
36353;SDS011;22383;51.114;13.666;2023-03-04T06:46:45;20.13;;;5.95;;
36353;SDS011;22383;51.114;13.666;2023-03-04T06:49:13;15.73;;;4.85;;
36353;SDS011;22383;51.114;13.666;2023-03-04T06:51:40;13.75;;;6.60;;
36353;SDS011;22383;51.114;13.666;2023-03-04T06:54:08;15.88;;;5.78;;
36353;SDS011;22383;51.114;13.666;2023-03-04T06:56:36;13.13;;;5.57;;
36353;SDS011;22383;51.114;13.666;2023-03-04T06:59:03;21.52;;;6.45;;
36353;SDS011;22383;51.114;13.666;2023-03-04T07:01:31;16.73;;;5.55;;
36353;SDS011;22383;51.114;13.666;2023-03-04T07:03:58;12.23;;;5.45;;
36353;SDS011;22383;51.114;13.666;2023-03-04T07:06:26;17.40;;;6.55;;
36353;SDS011;22383;51.114;13.666;2023-03-04T07:08:55;17.55;;;6.95;;
36353;SDS011;22383;51.114;13.666;2023-03-04T07:11:24;16.50;;;7.00;;
36353;SDS011;22383;51.114;13.666;2023-03-04T07:13:52;34.05;;;6.05;;
36353;SDS011;22383;51.114;13.666;2023-03-04T07:16:20;12.05;;;4.82;;
36353;SDS011;22383;51.114;13.666;2023-03-04T07:18:49;14.50;;;5.15;;
36353;SDS011;22383;51.114;13.666;2023-03-04T07:21:17;27.67;;;7.13;;
36353;SDS011;22383;51.114;13.666;2023-03-04T07:23:45;18.80;;;5.10;;
36353;SDS011;22383;51.114;13.666;2023-03-04T07:26:13;21.08;;;6.82;;
36353;SDS011;22383;51.114;13.666;2023-03-04T07:28:41;17.80;;;4.75;;
36353;SDS011;22383;51.114;13.666;2023-03-04T07:33:50;28.75;;;6.32;;
36353;SDS011;22383;51.114;13.666;2023-03-04T07:36:18;19.92;;;5.45;;
36353;SDS011;22383;51.114;13.666;2023-03-04T07:38:46;14.85;;;5.45;;
36353;SDS011;22383;51.114;13.666;2023-03-04T07:41:15;9.80;;;4.55;;
36353;SDS011;22383;51.114;13.666;2023-03-04T07:43:44;26.73;;;5.20;;
36353;SDS011;22383;51.114;13.666;2023-03-04T07:46:11;18.17;;;4.45;;
36353;SDS011;22383;51.114;13.666;2023-03-04T07:48:39;14.50;;;4.85;;
36353;SDS011;22383;51.114;13.666;2023-03-04T07:53:38;20.67;;;5.88;;
36353;SDS011;22383;51.114;13.666;2023-03-04T07:56:07;16.83;;;4.55;;
36353;SDS011;22383;51.114;13.666;2023-03-04T07:58:38;15.30;;;6.07;;
36353;SDS011;22383;51.114;13.666;2023-03-04T08:01:16;24.95;;;5.55;;
36353;SDS011;22383;51.114;13.666;2023-03-04T08:03:49;20.30;;;5.80;;
36353;SDS011;22383;51.114;13.666;2023-03-04T08:06:18;12.50;;;5.15;;
36353;SDS011;22383;51.114;13.666;2023-03-04T08:08:47;16.02;;;5.70;;
36353;SDS011;22383;51.114;13.666;2023-03-04T08:11:19;10.70;;;4.55;;
36353;SDS011;22383;51.114;13.666;2023-03-04T08:13:48;19.38;;;5.50;;
36353;SDS011;22383;51.114;13.666;2023-03-04T08:16:17;17.45;;;5.45;;
36353;SDS011;22383;51.114;13.666;2023-03-04T08:18:46;17.63;;;5.57;;
36353;SDS011;22383;51.114;13.666;2023-03-04T08:21:17;13.93;;;6.00;;
36353;SDS011;22383;51.114;13.666;2023-03-04T08:23:46;14.90;;;5.32;;
36353;SDS011;22383;51.114;13.666;2023-03-04T08:26:16;8.77;;;4.47;;
36353;SDS011;22383;51.114;13.666;2023-03-04T08:28:46;12.63;;;4.32;;
36353;SDS011;22383;51.114;13.666;2023-03-04T08:31:15;20.27;;;4.97;;
36353;SDS011;22383;51.114;13.666;2023-03-04T08:33:44;16.77;;;7.32;;
36353;SDS011;22383;51.114;13.666;2023-03-04T08:36:13;18.88;;;5.45;;
36353;SDS011;22383;51.114;13.666;2023-03-04T08:38:42;12.80;;;5.13;;
36353;SDS011;22383;51.114;13.666;2023-03-04T08:41:09;20.10;;;6.85;;
36353;SDS011;22383;51.114;13.666;2023-03-04T08:43:37;9.75;;;4.22;;
36353;SDS011;22383;51.114;13.666;2023-03-04T08:46:06;39.58;;;6.28;;
36353;SDS011;22383;51.114;13.666;2023-03-04T08:48:35;11.35;;;3.95;;
36353;SDS011;22383;51.114;13.666;2023-03-04T08:51:12;16.83;;;6.20;;
36353;SDS011;22383;51.114;13.666;2023-03-04T08:53:41;14.40;;;5.63;;
36353;SDS011;22383;51.114;13.666;2023-03-04T08:56:09;11.45;;;4.40;;
36353;SDS011;22383;51.114;13.666;2023-03-04T08:58:37;16.88;;;5.35;;
36353;SDS011;22383;51.114;13.666;2023-03-04T09:01:09;16.80;;;4.60;;
36353;SDS011;22383;51.114;13.666;2023-03-04T09:03:39;11.20;;;4.57;;
36353;SDS011;22383;51.114;13.666;2023-03-04T09:06:07;20.90;;;7.03;;
36353;SDS011;22383;51.114;13.666;2023-03-04T09:08:36;12.90;;;4.80;;
36353;SDS011;22383;51.114;13.666;2023-03-04T09:11:03;13.10;;;5.85;;
36353;SDS011;22383;51.114;13.666;2023-03-04T09:13:31;16.73;;;4.82;;
36353;SDS011;22383;51.114;13.666;2023-03-04T09:15:59;17.10;;;4.80;;
36353;SDS011;22383;51.114;13.666;2023-03-04T09:18:27;16.08;;;5.65;;
36353;SDS011;22383;51.114;13.666;2023-03-04T09:20:55;16.27;;;4.88;;
36353;SDS011;22383;51.114;13.666;2023-03-04T09:23:22;12.95;;;5.55;;
36353;SDS011;22383;51.114;13.666;2023-03-04T09:25:49;11.48;;;4.50;;
36353;SDS011;22383;51.114;13.666;2023-03-04T09:28:17;15.82;;;5.32;;
36353;SDS011;22383;51.114;13.666;2023-03-04T09:30:47;18.77;;;6.05;;
36353;SDS011;22383;51.114;13.666;2023-03-04T09:33:15;18.80;;;4.72;;
36353;SDS011;22383;51.114;13.666;2023-03-04T09:35:43;13.45;;;4.68;;
36353;SDS011;22383;51.114;13.666;2023-03-04T09:38:10;11.40;;;4.65;;
36353;SDS011;22383;51.114;13.666;2023-03-04T09:40:39;11.73;;;5.18;;
36353;SDS011;22383;51.114;13.666;2023-03-04T09:43:11;13.35;;;4.45;;
36353;SDS011;22383;51.114;13.666;2023-03-04T09:45:49;16.65;;;4.63;;
36353;SDS011;22383;51.114;13.666;2023-03-04T09:48:21;12.18;;;4.57;;
36353;SDS011;22383;51.114;13.666;2023-03-04T09:50:55;14.88;;;4.80;;
36353;SDS011;22383;51.114;13.666;2023-03-04T09:53:56;9.20;;;5.40;;
36353;SDS011;22383;51.114;13.666;2023-03-04T09:56:32;15.23;;;3.97;;
36353;SDS011;22383;51.114;13.666;2023-03-04T10:01:47;11.43;;;4.30;;
36353;SDS011;22383;51.114;13.666;2023-03-04T10:07:13;15.15;;;4.10;;
36353;SDS011;22383;51.114;13.666;2023-03-04T10:09:50;11.90;;;4.18;;
36353;SDS011;22383;51.114;13.666;2023-03-04T10:12:26;26.38;;;5.35;;
36353;SDS011;22383;51.114;13.666;2023-03-04T10:14:59;10.80;;;4.57;;
36353;SDS011;22383;51.114;13.666;2023-03-04T10:17:37;12.75;;;4.07;;
36353;SDS011;22383;51.114;13.666;2023-03-04T10:20:11;22.17;;;4.05;;
36353;SDS011;22383;51.114;13.666;2023-03-04T10:22:49;16.67;;;5.22;;
36353;SDS011;22383;51.114;13.666;2023-03-04T10:25:25;20.52;;;5.05;;
36353;SDS011;22383;51.114;13.666;2023-03-04T10:28:06;9.82;;;3.88;;
36353;SDS011;22383;51.114;13.666;2023-03-04T10:30:47;14.52;;;4.82;;
36353;SDS011;22383;51.114;13.666;2023-03-04T10:33:24;9.88;;;3.33;;
36353;SDS011;22383;51.114;13.666;2023-03-04T10:38:54;24.30;;;3.53;;
36353;SDS011;22383;51.114;13.666;2023-03-04T10:41:26;11.88;;;3.03;;
36353;SDS011;22383;51.114;13.666;2023-03-04T10:44:00;9.07;;;4.45;;
36353;SDS011;22383;51.114;13.666;2023-03-04T10:46:31;7.40;;;3.55;;
36353;SDS011;22383;51.114;13.666;2023-03-04T10:51:27;16.40;;;5.22;;
36353;SDS011;22383;51.114;13.666;2023-03-04T10:54:19;11.88;;;4.40;;
36353;SDS011;22383;51.114;13.666;2023-03-04T10:56:54;5.90;;;3.05;;
36353;SDS011;22383;51.114;13.666;2023-03-04T11:02:16;12.68;;;4.18;;
36353;SDS011;22383;51.114;13.666;2023-03-04T11:04:50;6.80;;;2.85;;
36353;SDS011;22383;51.114;13.666;2023-03-04T11:07:31;12.23;;;3.20;;
36353;SDS011;22383;51.114;13.666;2023-03-04T11:10:31;7.13;;;3.13;;
36353;SDS011;22383;51.114;13.666;2023-03-04T11:13:17;20.35;;;4.55;;
36353;SDS011;22383;51.114;13.666;2023-03-04T11:18:14;9.02;;;3.70;;
36353;SDS011;22383;51.114;13.666;2023-03-04T11:20:47;11.68;;;4.63;;
36353;SDS011;22383;51.114;13.666;2023-03-04T11:23:16;10.98;;;2.70;;
36353;SDS011;22383;51.114;13.666;2023-03-04T11:25:51;6.53;;;3.05;;
36353;SDS011;22383;51.114;13.666;2023-03-04T11:28:25;14.80;;;3.80;;
36353;SDS011;22383;51.114;13.666;2023-03-04T11:30:58;7.32;;;3.03;;
36353;SDS011;22383;51.114;13.666;2023-03-04T11:33:35;16.23;;;3.95;;
36353;SDS011;22383;51.114;13.666;2023-03-04T11:38:54;9.05;;;3.10;;
36353;SDS011;22383;51.114;13.666;2023-03-04T11:41:33;11.00;;;3.67;;
36353;SDS011;22383;51.114;13.666;2023-03-04T11:44:05;7.72;;;3.70;;
36353;SDS011;22383;51.114;13.666;2023-03-04T11:49:42;5.88;;;2.92;;
36353;SDS011;22383;51.114;13.666;2023-03-04T11:58:34;8.65;;;3.67;;
36353;SDS011;22383;51.114;13.666;2023-03-04T12:01:21;5.38;;;2.38;;
36353;SDS011;22383;51.114;13.666;2023-03-04T12:04:26;6.60;;;2.90;;
36353;SDS011;22383;51.114;13.666;2023-03-04T12:10:36;6.50;;;2.97;;
36353;SDS011;22383;51.114;13.666;2023-03-04T12:27:35;3.92;;;1.95;;
36353;SDS011;22383;51.114;13.666;2023-03-04T12:44:25;4.97;;;2.20;;
36353;SDS011;22383;51.114;13.666;2023-03-04T12:47:16;4.15;;;2.33;;
36353;SDS011;22383;51.114;13.666;2023-03-04T12:55:01;7.50;;;2.90;;
36353;SDS011;22383;51.114;13.666;2023-03-04T12:57:30;8.90;;;2.15;;
36353;SDS011;22383;51.114;13.666;2023-03-04T13:11:42;3.80;;;1.88;;
36353;SDS011;22383;51.114;13.666;2023-03-04T13:14:22;8.85;;;1.75;;
36353;SDS011;22383;51.114;13.666;2023-03-04T13:16:53;4.38;;;2.05;;
36353;SDS011;22383;51.114;13.666;2023-03-04T13:22:26;4.53;;;2.60;;
36353;SDS011;22383;51.114;13.666;2023-03-04T13:24:55;6.95;;;2.03;;
36353;SDS011;22383;51.114;13.666;2023-03-04T13:43:51;6.60;;;2.33;;
36353;SDS011;22383;51.114;13.666;2023-03-04T14:04:15;2.50;;;0.85;;
36353;SDS011;22383;51.114;13.666;2023-03-04T14:06:48;1.90;;;0.77;;
36353;SDS011;22383;51.114;13.666;2023-03-04T14:09:21;3.00;;;1.23;;
36353;SDS011;22383;51.114;13.666;2023-03-04T14:11:52;4.07;;;2.13;;
36353;SDS011;22383;51.114;13.666;2023-03-04T14:14:24;5.43;;;1.20;;
36353;SDS011;22383;51.114;13.666;2023-03-04T14:16:59;2.55;;;1.50;;
36353;SDS011;22383;51.114;13.666;2023-03-04T14:19:35;2.60;;;1.45;;
36353;SDS011;22383;51.114;13.666;2023-03-04T14:27:27;2.08;;;1.15;;
36353;SDS011;22383;51.114;13.666;2023-03-04T14:30:00;4.65;;;1.77;;
36353;SDS011;22383;51.114;13.666;2023-03-04T14:32:29;13.93;;;1.58;;
36353;SDS011;22383;51.114;13.666;2023-03-04T14:35:04;1.10;;;0.70;;
36353;SDS011;22383;51.114;13.666;2023-03-04T14:37:50;6.75;;;1.73;;
36353;SDS011;22383;51.114;13.666;2023-03-04T14:40:40;2.40;;;1.30;;
36353;SDS011;22383;51.114;13.666;2023-03-04T14:43:18;6.03;;;0.70;;
36353;SDS011;22383;51.114;13.666;2023-03-04T14:45:48;3.90;;;1.10;;
36353;SDS011;22383;51.114;13.666;2023-03-04T14:48:28;1.35;;;0.90;;
36353;SDS011;22383;51.114;13.666;2023-03-04T14:51:01;1.75;;;0.95;;
36353;SDS011;22383;51.114;13.666;2023-03-04T14:53:31;7.57;;;1.58;;
36353;SDS011;22383;51.114;13.666;2023-03-04T14:56:03;1.70;;;0.90;;
36353;SDS011;22383;51.114;13.666;2023-03-04T14:58:38;9.38;;;1.30;;
36353;SDS011;22383;51.114;13.666;2023-03-04T15:01:21;4.97;;;1.35;;
36353;SDS011;22383;51.114;13.666;2023-03-04T15:06:35;4.13;;;1.23;;
36353;SDS011;22383;51.114;13.666;2023-03-04T15:09:06;1.88;;;0.47;;
36353;SDS011;22383;51.114;13.666;2023-03-04T15:11:49;3.28;;;0.77;;
36353;SDS011;22383;51.114;13.666;2023-03-04T15:17:36;3.17;;;0.70;;
36353;SDS011;22383;51.114;13.666;2023-03-04T15:22:54;3.65;;;0.82;;
36353;SDS011;22383;51.114;13.666;2023-03-04T15:25:20;0.88;;;0.45;;
36353;SDS011;22383;51.114;13.666;2023-03-04T15:27:49;1.20;;;0.68;;
36353;SDS011;22383;51.114;13.666;2023-03-04T15:30:18;7.80;;;1.27;;
36353;SDS011;22383;51.114;13.666;2023-03-04T15:32:47;6.60;;;1.17;;
36353;SDS011;22383;51.114;13.666;2023-03-04T15:35:16;6.20;;;0.90;;
36353;SDS011;22383;51.114;13.666;2023-03-04T15:37:45;4.10;;;1.80;;
36353;SDS011;22383;51.114;13.666;2023-03-04T15:40:17;8.40;;;1.42;;
36353;SDS011;22383;51.114;13.666;2023-03-04T15:42:48;1.30;;;1.08;;
36353;SDS011;22383;51.114;13.666;2023-03-04T15:45:28;1.05;;;0.57;;
36353;SDS011;22383;51.114;13.666;2023-03-04T15:48:05;3.97;;;1.20;;
36353;SDS011;22383;51.114;13.666;2023-03-04T15:50:36;8.73;;;1.00;;
36353;SDS011;22383;51.114;13.666;2023-03-04T15:53:18;3.40;;;1.10;;
36353;SDS011;22383;51.114;13.666;2023-03-04T15:55:48;9.38;;;0.98;;
36353;SDS011;22383;51.114;13.666;2023-03-04T15:58:16;1.40;;;0.85;;
36353;SDS011;22383;51.114;13.666;2023-03-04T16:03:15;1.75;;;1.35;;
36353;SDS011;22383;51.114;13.666;2023-03-04T16:05:44;4.00;;;0.68;;
36353;SDS011;22383;51.114;13.666;2023-03-04T16:08:14;10.07;;;0.85;;
36353;SDS011;22383;51.114;13.666;2023-03-04T16:10:44;0.75;;;0.65;;
36353;SDS011;22383;51.114;13.666;2023-03-04T16:13:14;6.03;;;1.58;;
36353;SDS011;22383;51.114;13.666;2023-03-04T16:15:43;1.92;;;0.98;;
36353;SDS011;22383;51.114;13.666;2023-03-04T16:18:12;1.13;;;0.70;;
36353;SDS011;22383;51.114;13.666;2023-03-04T16:20:41;0.70;;;0.60;;
36353;SDS011;22383;51.114;13.666;2023-03-04T16:23:13;7.05;;;1.30;;
36353;SDS011;22383;51.114;13.666;2023-03-04T16:25:44;5.63;;;1.30;;
36353;SDS011;22383;51.114;13.666;2023-03-04T16:28:13;11.48;;;2.15;;
36353;SDS011;22383;51.114;13.666;2023-03-04T16:30:41;1.85;;;0.93;;
36353;SDS011;22383;51.114;13.666;2023-03-04T16:33:08;1.08;;;0.95;;
36353;SDS011;22383;51.114;13.666;2023-03-04T16:35:41;5.13;;;1.25;;
36353;SDS011;22383;51.114;13.666;2023-03-04T16:38:16;3.22;;;0.80;;
36353;SDS011;22383;51.114;13.666;2023-03-04T16:40:49;1.95;;;0.85;;
36353;SDS011;22383;51.114;13.666;2023-03-04T16:43:17;3.17;;;0.98;;
36353;SDS011;22383;51.114;13.666;2023-03-04T16:48:13;2.28;;;0.88;;
36353;SDS011;22383;51.114;13.666;2023-03-04T16:50:42;1.60;;;0.82;;
36353;SDS011;22383;51.114;13.666;2023-03-04T16:53:22;3.80;;;0.70;;
36353;SDS011;22383;51.114;13.666;2023-03-04T16:56:05;1.42;;;0.50;;
36353;SDS011;22383;51.114;13.666;2023-03-04T16:58:37;3.22;;;1.10;;
36353;SDS011;22383;51.114;13.666;2023-03-04T17:01:05;7.70;;;1.10;;
36353;SDS011;22383;51.114;13.666;2023-03-04T17:06:00;6.35;;;0.90;;
36353;SDS011;22383;51.114;13.666;2023-03-04T17:08:33;7.28;;;1.65;;
36353;SDS011;22383;51.114;13.666;2023-03-04T17:11:04;3.83;;;0.77;;
36353;SDS011;22383;51.114;13.666;2023-03-04T17:16:00;6.65;;;1.30;;
36353;SDS011;22383;51.114;13.666;2023-03-04T17:18:29;1.60;;;0.98;;
36353;SDS011;22383;51.114;13.666;2023-03-04T17:21:00;10.27;;;1.60;;
36353;SDS011;22383;51.114;13.666;2023-03-04T17:23:33;3.70;;;1.30;;
36353;SDS011;22383;51.114;13.666;2023-03-04T17:26:03;12.23;;;1.65;;
36353;SDS011;22383;51.114;13.666;2023-03-04T17:28:32;2.28;;;1.08;;
36353;SDS011;22383;51.114;13.666;2023-03-04T17:30:59;2.38;;;1.67;;
36353;SDS011;22383;51.114;13.666;2023-03-04T17:33:27;5.32;;;2.70;;
36353;SDS011;22383;51.114;13.666;2023-03-04T17:35:55;5.60;;;1.40;;
36353;SDS011;22383;51.114;13.666;2023-03-04T17:38:24;2.47;;;1.65;;
36353;SDS011;22383;51.114;13.666;2023-03-04T17:40:51;24.25;;;2.03;;
36353;SDS011;22383;51.114;13.666;2023-03-04T17:43:19;4.05;;;1.20;;